sensor_id;sensor_type;location;lat;lon;timestamp;temperature;humidity
21169;DHT22;10742;51.816;8.662;2023-12-04T00:01:05;4.10;97.20
21169;DHT22;10742;51.816;8.662;2023-12-04T00:04:26;4.10;97.20
21169;DHT22;10742;51.816;8.662;2023-12-04T00:07:47;4.10;97.30
21169;DHT22;10742;51.816;8.662;2023-12-04T00:11:08;4.10;97.30
21169;DHT22;10742;51.816;8.662;2023-12-04T00:14:29;4.10;97.30
21169;DHT22;10742;51.816;8.662;2023-12-04T00:17:50;4.10;97.30
21169;DHT22;10742;51.816;8.662;2023-12-04T00:21:12;4.10;97.20
21169;DHT22;10742;51.816;8.662;2023-12-04T00:24:33;4.10;97.20
21169;DHT22;10742;51.816;8.662;2023-12-04T00:27:54;4.20;97.30
21169;DHT22;10742;51.816;8.662;2023-12-04T00:31:16;4.20;97.30
21169;DHT22;10742;51.816;8.662;2023-12-04T00:34:37;4.20;97.30
21169;DHT22;10742;51.816;8.662;2023-12-04T00:37:58;4.10;97.30
21169;DHT22;10742;51.816;8.662;2023-12-04T00:41:20;4.20;97.40
21169;DHT22;10742;51.816;8.662;2023-12-04T00:44:41;4.20;97.40
21169;DHT22;10742;51.816;8.662;2023-12-04T00:48:02;4.10;97.40
21169;DHT22;10742;51.816;8.662;2023-12-04T00:51:23;4.10;97.40
21169;DHT22;10742;51.816;8.662;2023-12-04T00:54:44;4.10;97.40
21169;DHT22;10742;51.816;8.662;2023-12-04T00:58:06;4.10;97.50
21169;DHT22;10742;51.816;8.662;2023-12-04T01:01:27;4.10;97.50
21169;DHT22;10742;51.816;8.662;2023-12-04T01:04:49;4.10;97.50
21169;DHT22;10742;51.816;8.662;2023-12-04T01:08:10;4.10;97.50
21169;DHT22;10742;51.816;8.662;2023-12-04T01:11:30;4.10;97.50
21169;DHT22;10742;51.816;8.662;2023-12-04T01:14:52;4.10;97.60
21169;DHT22;10742;51.816;8.662;2023-12-04T01:18:13;4.10;97.60
21169;DHT22;10742;51.816;8.662;2023-12-04T01:21:34;4.10;97.60
21169;DHT22;10742;51.816;8.662;2023-12-04T01:24:55;4.10;97.60
21169;DHT22;10742;51.816;8.662;2023-12-04T01:28:17;4.10;97.60
21169;DHT22;10742;51.816;8.662;2023-12-04T01:31:38;4.10;97.60
21169;DHT22;10742;51.816;8.662;2023-12-04T01:34:59;4.10;97.60
21169;DHT22;10742;51.816;8.662;2023-12-04T01:38:20;4.10;97.70
21169;DHT22;10742;51.816;8.662;2023-12-04T01:41:41;4.10;97.60
21169;DHT22;10742;51.816;8.662;2023-12-04T01:45:03;4.20;97.60
21169;DHT22;10742;51.816;8.662;2023-12-04T01:48:25;4.20;97.70
21169;DHT22;10742;51.816;8.662;2023-12-04T01:51:46;4.20;97.70
21169;DHT22;10742;51.816;8.662;2023-12-04T01:55:09;4.20;97.70
21169;DHT22;10742;51.816;8.662;2023-12-04T01:58:32;4.20;97.60
21169;DHT22;10742;51.816;8.662;2023-12-04T02:01:53;4.20;97.60
21169;DHT22;10742;51.816;8.662;2023-12-04T02:05:14;4.20;97.60
21169;DHT22;10742;51.816;8.662;2023-12-04T02:08:35;4.20;97.60
21169;DHT22;10742;51.816;8.662;2023-12-04T02:11:57;4.20;97.60
21169;DHT22;10742;51.816;8.662;2023-12-04T02:15:20;4.30;97.60
21169;DHT22;10742;51.816;8.662;2023-12-04T02:18:41;4.30;97.60
21169;DHT22;10742;51.816;8.662;2023-12-04T02:22:03;4.30;97.50
21169;DHT22;10742;51.816;8.662;2023-12-04T02:25:24;4.30;97.50
21169;DHT22;10742;51.816;8.662;2023-12-04T02:28:50;4.30;97.40
21169;DHT22;10742;51.816;8.662;2023-12-04T02:32:19;4.30;97.30
21169;DHT22;10742;51.816;8.662;2023-12-04T02:35:42;4.40;97.30
21169;DHT22;10742;51.816;8.662;2023-12-04T02:39:04;4.40;97.30
21169;DHT22;10742;51.816;8.662;2023-12-04T02:42:26;4.40;97.20
21169;DHT22;10742;51.816;8.662;2023-12-04T02:45:47;4.40;97.20
21169;DHT22;10742;51.816;8.662;2023-12-04T02:49:08;4.40;97.10
21169;DHT22;10742;51.816;8.662;2023-12-04T02:52:29;4.50;97.10
21169;DHT22;10742;51.816;8.662;2023-12-04T02:55:50;4.50;97.00
21169;DHT22;10742;51.816;8.662;2023-12-04T02:59:11;4.50;97.00
21169;DHT22;10742;51.816;8.662;2023-12-04T03:02:32;4.50;96.90
21169;DHT22;10742;51.816;8.662;2023-12-04T03:05:53;4.50;96.80
21169;DHT22;10742;51.816;8.662;2023-12-04T03:09:14;4.50;96.80
21169;DHT22;10742;51.816;8.662;2023-12-04T03:12:35;4.50;96.70
21169;DHT22;10742;51.816;8.662;2023-12-04T03:15:59;4.50;96.70
21169;DHT22;10742;51.816;8.662;2023-12-04T03:19:20;4.50;96.50
21169;DHT22;10742;51.816;8.662;2023-12-04T03:22:41;4.50;96.60
21169;DHT22;10742;51.816;8.662;2023-12-04T03:26:02;4.50;96.50
21169;DHT22;10742;51.816;8.662;2023-12-04T03:29:23;4.50;96.50
21169;DHT22;10742;51.816;8.662;2023-12-04T03:32:44;4.50;96.50
21169;DHT22;10742;51.816;8.662;2023-12-04T03:36:06;4.50;96.40
21169;DHT22;10742;51.816;8.662;2023-12-04T03:39:27;4.50;96.40
21169;DHT22;10742;51.816;8.662;2023-12-04T03:42:48;4.60;96.40
21169;DHT22;10742;51.816;8.662;2023-12-04T03:46:09;4.60;96.40
21169;DHT22;10742;51.816;8.662;2023-12-04T03:49:30;4.60;96.40
21169;DHT22;10742;51.816;8.662;2023-12-04T03:52:51;4.60;96.30
21169;DHT22;10742;51.816;8.662;2023-12-04T03:56:12;4.60;96.30
21169;DHT22;10742;51.816;8.662;2023-12-04T03:59:33;4.60;96.30
21169;DHT22;10742;51.816;8.662;2023-12-04T04:02:54;4.60;96.20
21169;DHT22;10742;51.816;8.662;2023-12-04T04:06:16;4.70;96.20
21169;DHT22;10742;51.816;8.662;2023-12-04T04:09:37;4.70;96.10
21169;DHT22;10742;51.816;8.662;2023-12-04T04:12:58;4.70;96.10
21169;DHT22;10742;51.816;8.662;2023-12-04T04:16:19;4.70;96.10
21169;DHT22;10742;51.816;8.662;2023-12-04T04:19:41;4.70;96.00
21169;DHT22;10742;51.816;8.662;2023-12-04T04:23:02;4.80;96.00
21169;DHT22;10742;51.816;8.662;2023-12-04T04:26:23;4.70;95.90
21169;DHT22;10742;51.816;8.662;2023-12-04T04:29:44;4.80;95.80
21169;DHT22;10742;51.816;8.662;2023-12-04T04:33:05;4.80;95.80
21169;DHT22;10742;51.816;8.662;2023-12-04T04:36:26;4.80;95.80
21169;DHT22;10742;51.816;8.662;2023-12-04T04:39:47;4.80;95.70
21169;DHT22;10742;51.816;8.662;2023-12-04T04:43:10;4.80;95.70
21169;DHT22;10742;51.816;8.662;2023-12-04T04:46:31;4.80;95.60
21169;DHT22;10742;51.816;8.662;2023-12-04T04:49:52;4.80;95.60
21169;DHT22;10742;51.816;8.662;2023-12-04T04:53:15;4.90;95.60
21169;DHT22;10742;51.816;8.662;2023-12-04T04:56:36;4.80;95.50
21169;DHT22;10742;51.816;8.662;2023-12-04T04:59:57;4.90;95.50
21169;DHT22;10742;51.816;8.662;2023-12-04T05:03:18;4.90;95.40
21169;DHT22;10742;51.816;8.662;2023-12-04T05:06:40;4.90;95.40
21169;DHT22;10742;51.816;8.662;2023-12-04T05:10:01;4.90;95.40
21169;DHT22;10742;51.816;8.662;2023-12-04T05:13:23;4.90;95.40
21169;DHT22;10742;51.816;8.662;2023-12-04T05:16:44;4.90;95.40
21169;DHT22;10742;51.816;8.662;2023-12-04T05:20:06;4.90;95.40
21169;DHT22;10742;51.816;8.662;2023-12-04T05:23:28;4.90;95.30
21169;DHT22;10742;51.816;8.662;2023-12-04T05:26:49;4.90;95.30
21169;DHT22;10742;51.816;8.662;2023-12-04T05:30:10;4.90;95.30
21169;DHT22;10742;51.816;8.662;2023-12-04T05:33:31;4.90;95.20
21169;DHT22;10742;51.816;8.662;2023-12-04T05:36:53;4.90;95.20
21169;DHT22;10742;51.816;8.662;2023-12-04T05:40:15;4.90;95.20
21169;DHT22;10742;51.816;8.662;2023-12-04T05:43:36;4.90;95.20
21169;DHT22;10742;51.816;8.662;2023-12-04T05:46:57;4.90;95.10
21169;DHT22;10742;51.816;8.662;2023-12-04T05:50:18;4.90;95.20
21169;DHT22;10742;51.816;8.662;2023-12-04T05:53:39;4.90;95.20
21169;DHT22;10742;51.816;8.662;2023-12-04T05:57:00;4.90;95.10
21169;DHT22;10742;51.816;8.662;2023-12-04T06:00:22;4.90;95.10
21169;DHT22;10742;51.816;8.662;2023-12-04T06:03:44;4.90;95.10
21169;DHT22;10742;51.816;8.662;2023-12-04T06:07:05;4.90;95.00
21169;DHT22;10742;51.816;8.662;2023-12-04T06:10:28;4.90;95.00
21169;DHT22;10742;51.816;8.662;2023-12-04T06:13:49;4.90;95.00
21169;DHT22;10742;51.816;8.662;2023-12-04T06:17:10;5.00;95.00
21169;DHT22;10742;51.816;8.662;2023-12-04T06:20:31;4.90;94.90
21169;DHT22;10742;51.816;8.662;2023-12-04T06:23:52;4.90;94.90
21169;DHT22;10742;51.816;8.662;2023-12-04T06:27:16;4.90;94.80
21169;DHT22;10742;51.816;8.662;2023-12-04T06:30:38;4.90;94.70
21169;DHT22;10742;51.816;8.662;2023-12-04T06:34:00;4.90;94.90
21169;DHT22;10742;51.816;8.662;2023-12-04T06:37:21;4.90;94.80
21169;DHT22;10742;51.816;8.662;2023-12-04T06:40:43;5.00;94.70
21169;DHT22;10742;51.816;8.662;2023-12-04T06:44:05;5.00;94.70
21169;DHT22;10742;51.816;8.662;2023-12-04T06:47:26;4.90;94.60
21169;DHT22;10742;51.816;8.662;2023-12-04T06:50:49;5.00;94.60
21169;DHT22;10742;51.816;8.662;2023-12-04T06:54:10;4.90;94.50
21169;DHT22;10742;51.816;8.662;2023-12-04T06:57:32;5.00;94.60
21169;DHT22;10742;51.816;8.662;2023-12-04T07:00:53;5.00;94.50
21169;DHT22;10742;51.816;8.662;2023-12-04T07:04:15;4.90;94.50
21169;DHT22;10742;51.816;8.662;2023-12-04T07:07:41;5.00;94.50
21169;DHT22;10742;51.816;8.662;2023-12-04T07:11:03;5.00;94.90
21169;DHT22;10742;51.816;8.662;2023-12-04T07:14:24;5.10;95.30
21169;DHT22;10742;51.816;8.662;2023-12-04T07:17:45;5.20;95.50
21169;DHT22;10742;51.816;8.662;2023-12-04T07:21:07;5.40;95.50
21169;DHT22;10742;51.816;8.662;2023-12-04T07:24:28;5.50;95.80
21169;DHT22;10742;51.816;8.662;2023-12-04T07:27:49;5.70;95.80
21169;DHT22;10742;51.816;8.662;2023-12-04T07:31:10;5.90;95.30
21169;DHT22;10742;51.816;8.662;2023-12-04T07:34:32;6.00;95.10
21169;DHT22;10742;51.816;8.662;2023-12-04T07:37:53;6.10;94.80
21169;DHT22;10742;51.816;8.662;2023-12-04T07:41:14;6.20;94.50
21169;DHT22;10742;51.816;8.662;2023-12-04T07:44:36;6.30;94.30
21169;DHT22;10742;51.816;8.662;2023-12-04T07:47:57;6.30;94.00
21169;DHT22;10742;51.816;8.662;2023-12-04T07:51:19;6.30;93.50
21169;DHT22;10742;51.816;8.662;2023-12-04T07:54:40;6.30;93.30
21169;DHT22;10742;51.816;8.662;2023-12-04T07:58:01;6.20;93.20
21169;DHT22;10742;51.816;8.662;2023-12-04T08:01:23;6.10;93.00
21169;DHT22;10742;51.816;8.662;2023-12-04T08:04:45;6.00;92.90
21169;DHT22;10742;51.816;8.662;2023-12-04T08:08:06;6.00;92.90
21169;DHT22;10742;51.816;8.662;2023-12-04T08:11:27;5.90;93.00
21169;DHT22;10742;51.816;8.662;2023-12-04T08:14:48;5.80;93.20
21169;DHT22;10742;51.816;8.662;2023-12-04T08:18:09;5.70;93.00
21169;DHT22;10742;51.816;8.662;2023-12-04T08:21:30;5.70;93.00
21169;DHT22;10742;51.816;8.662;2023-12-04T08:24:53;5.60;93.00
21169;DHT22;10742;51.816;8.662;2023-12-04T08:28:15;5.60;93.00
21169;DHT22;10742;51.816;8.662;2023-12-04T08:31:36;5.50;93.00
21169;DHT22;10742;51.816;8.662;2023-12-04T08:34:57;5.50;93.00
21169;DHT22;10742;51.816;8.662;2023-12-04T08:38:18;5.50;93.00
21169;DHT22;10742;51.816;8.662;2023-12-04T08:41:39;5.50;93.00
21169;DHT22;10742;51.816;8.662;2023-12-04T08:45:03;5.50;93.10
21169;DHT22;10742;51.816;8.662;2023-12-04T08:48:26;5.50;93.10
21169;DHT22;10742;51.816;8.662;2023-12-04T08:51:47;5.50;93.10
21169;DHT22;10742;51.816;8.662;2023-12-04T08:55:09;5.50;93.00
21169;DHT22;10742;51.816;8.662;2023-12-04T08:58:31;5.50;92.90
21169;DHT22;10742;51.816;8.662;2023-12-04T09:01:55;5.50;93.00
21169;DHT22;10742;51.816;8.662;2023-12-04T09:05:16;5.50;92.90
21169;DHT22;10742;51.816;8.662;2023-12-04T09:08:38;5.40;92.80
21169;DHT22;10742;51.816;8.662;2023-12-04T09:11:59;5.40;93.20
21169;DHT22;10742;51.816;8.662;2023-12-04T09:15:20;5.40;92.90
21169;DHT22;10742;51.816;8.662;2023-12-04T09:18:41;5.40;92.90
21169;DHT22;10742;51.816;8.662;2023-12-04T09:22:02;5.40;92.90
21169;DHT22;10742;51.816;8.662;2023-12-04T09:25:27;5.40;92.90
21169;DHT22;10742;51.816;8.662;2023-12-04T09:28:48;5.40;92.80
21169;DHT22;10742;51.816;8.662;2023-12-04T09:32:10;5.40;92.80
21169;DHT22;10742;51.816;8.662;2023-12-04T09:35:31;5.40;92.80
21169;DHT22;10742;51.816;8.662;2023-12-04T09:38:52;5.40;93.20
21169;DHT22;10742;51.816;8.662;2023-12-04T09:42:14;5.40;93.20
21169;DHT22;10742;51.816;8.662;2023-12-04T09:45:36;5.50;92.90
21169;DHT22;10742;51.816;8.662;2023-12-04T09:48:59;5.50;92.70
21169;DHT22;10742;51.816;8.662;2023-12-04T09:52:22;5.50;92.70
21169;DHT22;10742;51.816;8.662;2023-12-04T09:55:44;5.50;92.70
21169;DHT22;10742;51.816;8.662;2023-12-04T09:59:07;5.50;92.70
21169;DHT22;10742;51.816;8.662;2023-12-04T10:02:31;5.50;92.70
21169;DHT22;10742;51.816;8.662;2023-12-04T10:05:54;5.50;92.70
21169;DHT22;10742;51.816;8.662;2023-12-04T10:09:16;5.40;92.50
21169;DHT22;10742;51.816;8.662;2023-12-04T10:12:38;5.50;92.60
21169;DHT22;10742;51.816;8.662;2023-12-04T10:15:59;5.50;92.70
21169;DHT22;10742;51.816;8.662;2023-12-04T10:19:27;5.50;92.70
21169;DHT22;10742;51.816;8.662;2023-12-04T10:23:02;5.50;92.70
21169;DHT22;10742;51.816;8.662;2023-12-04T10:26:23;5.50;92.30
21169;DHT22;10742;51.816;8.662;2023-12-04T10:29:46;5.60;92.60
21169;DHT22;10742;51.816;8.662;2023-12-04T10:33:08;5.50;92.60
21169;DHT22;10742;51.816;8.662;2023-12-04T10:36:30;5.50;92.60
21169;DHT22;10742;51.816;8.662;2023-12-04T10:39:54;5.50;92.60
21169;DHT22;10742;51.816;8.662;2023-12-04T10:43:20;5.60;92.70
21169;DHT22;10742;51.816;8.662;2023-12-04T10:46:42;5.60;92.60
21169;DHT22;10742;51.816;8.662;2023-12-04T10:50:04;5.60;92.60
21169;DHT22;10742;51.816;8.662;2023-12-04T10:53:28;5.70;92.70
21169;DHT22;10742;51.816;8.662;2023-12-04T10:56:50;5.70;92.60
21169;DHT22;10742;51.816;8.662;2023-12-04T11:00:13;5.70;92.50
21169;DHT22;10742;51.816;8.662;2023-12-04T11:03:52;5.70;92.50
21169;DHT22;10742;51.816;8.662;2023-12-04T11:07:18;5.70;92.10
21169;DHT22;10742;51.816;8.662;2023-12-04T11:11:03;5.70;92.30
21169;DHT22;10742;51.816;8.662;2023-12-04T11:14:30;5.70;92.00
21169;DHT22;10742;51.816;8.662;2023-12-04T11:17:59;5.70;92.00
21169;DHT22;10742;51.816;8.662;2023-12-04T11:21:21;5.70;91.80
21169;DHT22;10742;51.816;8.662;2023-12-04T11:24:43;5.70;92.10
21169;DHT22;10742;51.816;8.662;2023-12-04T11:28:04;5.70;92.10
21169;DHT22;10742;51.816;8.662;2023-12-04T11:31:26;5.70;92.10
21169;DHT22;10742;51.816;8.662;2023-12-04T11:34:49;5.70;92.10
21169;DHT22;10742;51.816;8.662;2023-12-04T11:38:13;5.70;92.20
21169;DHT22;10742;51.816;8.662;2023-12-04T11:41:35;5.70;92.00
21169;DHT22;10742;51.816;8.662;2023-12-04T11:44:59;5.70;92.10
21169;DHT22;10742;51.816;8.662;2023-12-04T11:48:23;5.80;91.90
21169;DHT22;10742;51.816;8.662;2023-12-04T11:51:45;5.80;91.90
21169;DHT22;10742;51.816;8.662;2023-12-04T11:55:12;5.80;92.10
21169;DHT22;10742;51.816;8.662;2023-12-04T11:58:42;5.80;92.10
21169;DHT22;10742;51.816;8.662;2023-12-04T12:02:10;5.80;91.80
21169;DHT22;10742;51.816;8.662;2023-12-04T12:05:33;5.90;91.90
21169;DHT22;10742;51.816;8.662;2023-12-04T12:08:56;5.90;92.00
21169;DHT22;10742;51.816;8.662;2023-12-04T12:12:17;5.90;92.00
21169;DHT22;10742;51.816;8.662;2023-12-04T12:15:38;5.90;91.90
21169;DHT22;10742;51.816;8.662;2023-12-04T12:19:01;6.00;91.90
21169;DHT22;10742;51.816;8.662;2023-12-04T12:22:22;6.00;91.80
21169;DHT22;10742;51.816;8.662;2023-12-04T12:25:43;6.00;91.80
21169;DHT22;10742;51.816;8.662;2023-12-04T12:29:05;6.00;91.80
21169;DHT22;10742;51.816;8.662;2023-12-04T12:32:27;6.00;91.90
21169;DHT22;10742;51.816;8.662;2023-12-04T12:35:50;6.00;91.80
21169;DHT22;10742;51.816;8.662;2023-12-04T12:39:14;6.00;91.70
21169;DHT22;10742;51.816;8.662;2023-12-04T12:42:36;6.00;91.80
21169;DHT22;10742;51.816;8.662;2023-12-04T12:46:02;6.00;91.80
21169;DHT22;10742;51.816;8.662;2023-12-04T12:49:26;6.00;91.80
21169;DHT22;10742;51.816;8.662;2023-12-04T12:52:49;6.10;91.80
21169;DHT22;10742;51.816;8.662;2023-12-04T12:56:10;6.10;91.80
21169;DHT22;10742;51.816;8.662;2023-12-04T12:59:32;6.10;91.70
21169;DHT22;10742;51.816;8.662;2023-12-04T13:02:53;6.10;91.70
21169;DHT22;10742;51.816;8.662;2023-12-04T13:06:14;6.10;91.70
21169;DHT22;10742;51.816;8.662;2023-12-04T13:09:35;6.10;91.70
21169;DHT22;10742;51.816;8.662;2023-12-04T13:12:57;6.10;91.60
21169;DHT22;10742;51.816;8.662;2023-12-04T13:16:21;6.10;91.70
21169;DHT22;10742;51.816;8.662;2023-12-04T13:19:42;6.20;91.60
21169;DHT22;10742;51.816;8.662;2023-12-04T13:23:03;6.20;91.60
21169;DHT22;10742;51.816;8.662;2023-12-04T13:26:24;6.10;91.40
21169;DHT22;10742;51.816;8.662;2023-12-04T13:29:46;6.10;91.40
21169;DHT22;10742;51.816;8.662;2023-12-04T13:33:11;6.10;91.40
21169;DHT22;10742;51.816;8.662;2023-12-04T13:36:34;6.10;91.40
21169;DHT22;10742;51.816;8.662;2023-12-04T13:39:55;6.00;91.30
21169;DHT22;10742;51.816;8.662;2023-12-04T13:43:19;6.00;91.40
21169;DHT22;10742;51.816;8.662;2023-12-04T13:46:59;6.00;91.40
21169;DHT22;10742;51.816;8.662;2023-12-04T13:50:20;6.10;91.50
21169;DHT22;10742;51.816;8.662;2023-12-04T13:53:41;6.10;91.50
21169;DHT22;10742;51.816;8.662;2023-12-04T13:57:06;6.10;91.50
21169;DHT22;10742;51.816;8.662;2023-12-04T14:00:28;6.10;91.50
21169;DHT22;10742;51.816;8.662;2023-12-04T14:03:49;6.10;91.50
21169;DHT22;10742;51.816;8.662;2023-12-04T14:07:10;6.10;91.50
21169;DHT22;10742;51.816;8.662;2023-12-04T14:10:32;6.10;91.60
21169;DHT22;10742;51.816;8.662;2023-12-04T14:13:54;6.10;91.70
21169;DHT22;10742;51.816;8.662;2023-12-04T14:17:16;6.10;91.80
21169;DHT22;10742;51.816;8.662;2023-12-04T14:20:37;6.10;91.80
21169;DHT22;10742;51.816;8.662;2023-12-04T14:23:58;6.10;91.80
21169;DHT22;10742;51.816;8.662;2023-12-04T14:27:19;6.10;91.80
21169;DHT22;10742;51.816;8.662;2023-12-04T14:30:41;6.10;91.80
21169;DHT22;10742;51.816;8.662;2023-12-04T14:34:02;6.10;91.80
21169;DHT22;10742;51.816;8.662;2023-12-04T14:37:24;6.10;91.80
21169;DHT22;10742;51.816;8.662;2023-12-04T14:40:45;6.10;91.80
21169;DHT22;10742;51.816;8.662;2023-12-04T14:44:06;6.10;91.80
21169;DHT22;10742;51.816;8.662;2023-12-04T14:47:27;6.00;91.80
21169;DHT22;10742;51.816;8.662;2023-12-04T14:50:49;6.10;91.80
21169;DHT22;10742;51.816;8.662;2023-12-04T14:54:10;6.00;91.80
21169;DHT22;10742;51.816;8.662;2023-12-04T14:57:57;6.00;91.80
21169;DHT22;10742;51.816;8.662;2023-12-04T15:01:41;6.00;91.80
21169;DHT22;10742;51.816;8.662;2023-12-04T15:05:25;6.00;91.90
21169;DHT22;10742;51.816;8.662;2023-12-04T15:09:05;5.90;91.90
21169;DHT22;10742;51.816;8.662;2023-12-04T15:12:44;5.90;91.90
21169;DHT22;10742;51.816;8.662;2023-12-04T15:16:28;5.90;91.90
21169;DHT22;10742;51.816;8.662;2023-12-04T15:20:11;5.90;91.90
21169;DHT22;10742;51.816;8.662;2023-12-04T15:23:32;5.80;92.00
21169;DHT22;10742;51.816;8.662;2023-12-04T15:26:53;5.80;92.00
21169;DHT22;10742;51.816;8.662;2023-12-04T15:30:14;5.80;92.10
21169;DHT22;10742;51.816;8.662;2023-12-04T15:33:35;5.70;92.10
21169;DHT22;10742;51.816;8.662;2023-12-04T15:36:56;5.70;92.20
21169;DHT22;10742;51.816;8.662;2023-12-04T15:40:17;5.70;92.30
21169;DHT22;10742;51.816;8.662;2023-12-04T15:43:39;5.70;92.30
21169;DHT22;10742;51.816;8.662;2023-12-04T15:47:00;5.70;92.40
21169;DHT22;10742;51.816;8.662;2023-12-04T15:50:21;5.70;92.40
21169;DHT22;10742;51.816;8.662;2023-12-04T15:53:43;5.70;92.40
21169;DHT22;10742;51.816;8.662;2023-12-04T15:57:05;5.70;92.50
21169;DHT22;10742;51.816;8.662;2023-12-04T16:00:26;5.70;92.60
21169;DHT22;10742;51.816;8.662;2023-12-04T16:03:47;5.70;92.60
21169;DHT22;10742;51.816;8.662;2023-12-04T16:07:09;5.70;92.60
21169;DHT22;10742;51.816;8.662;2023-12-04T16:10:30;5.60;92.60
21169;DHT22;10742;51.816;8.662;2023-12-04T16:13:51;5.70;92.60
21169;DHT22;10742;51.816;8.662;2023-12-04T16:17:12;5.70;92.60
21169;DHT22;10742;51.816;8.662;2023-12-04T16:20:33;5.70;92.70
21169;DHT22;10742;51.816;8.662;2023-12-04T16:23:54;5.60;92.60
21169;DHT22;10742;51.816;8.662;2023-12-04T16:27:18;5.60;92.70
21169;DHT22;10742;51.816;8.662;2023-12-04T16:30:39;5.60;92.70
21169;DHT22;10742;51.816;8.662;2023-12-04T16:34:00;5.60;92.80
21169;DHT22;10742;51.816;8.662;2023-12-04T16:37:22;5.60;93.00
21169;DHT22;10742;51.816;8.662;2023-12-04T16:40:43;5.50;93.10
21169;DHT22;10742;51.816;8.662;2023-12-04T16:44:04;5.50;93.20
21169;DHT22;10742;51.816;8.662;2023-12-04T16:47:27;5.50;93.30
21169;DHT22;10742;51.816;8.662;2023-12-04T16:50:49;5.50;93.40
21169;DHT22;10742;51.816;8.662;2023-12-04T16:54:11;5.50;93.50
21169;DHT22;10742;51.816;8.662;2023-12-04T16:57:32;5.40;93.70
21169;DHT22;10742;51.816;8.662;2023-12-04T17:00:54;5.40;93.80
21169;DHT22;10742;51.816;8.662;2023-12-04T17:04:15;5.40;93.80
21169;DHT22;10742;51.816;8.662;2023-12-04T17:07:36;5.50;94.10
21169;DHT22;10742;51.816;8.662;2023-12-04T17:10:57;5.40;94.70
21169;DHT22;10742;51.816;8.662;2023-12-04T17:14:18;5.50;94.60
21169;DHT22;10742;51.816;8.662;2023-12-04T17:17:41;5.50;94.50
21169;DHT22;10742;51.816;8.662;2023-12-04T17:21:03;5.50;94.50
21169;DHT22;10742;51.816;8.662;2023-12-04T17:24:24;5.50;94.40
21169;DHT22;10742;51.816;8.662;2023-12-04T17:27:46;5.60;94.40
21169;DHT22;10742;51.816;8.662;2023-12-04T17:31:10;5.50;94.40
21169;DHT22;10742;51.816;8.662;2023-12-04T17:34:31;5.50;94.60
21169;DHT22;10742;51.816;8.662;2023-12-04T17:37:53;5.50;94.50
21169;DHT22;10742;51.816;8.662;2023-12-04T17:41:14;5.50;94.60
21169;DHT22;10742;51.816;8.662;2023-12-04T17:44:36;5.50;94.60
21169;DHT22;10742;51.816;8.662;2023-12-04T17:47:59;5.50;94.60
21169;DHT22;10742;51.816;8.662;2023-12-04T17:51:21;5.50;94.70
21169;DHT22;10742;51.816;8.662;2023-12-04T17:54:42;5.50;94.70
21169;DHT22;10742;51.816;8.662;2023-12-04T17:58:03;5.50;94.70
21169;DHT22;10742;51.816;8.662;2023-12-04T18:01:24;5.50;94.70
21169;DHT22;10742;51.816;8.662;2023-12-04T18:04:45;5.50;95.10
21169;DHT22;10742;51.816;8.662;2023-12-04T18:08:10;5.50;94.80
21169;DHT22;10742;51.816;8.662;2023-12-04T18:11:31;5.40;94.80
21169;DHT22;10742;51.816;8.662;2023-12-04T18:14:52;5.40;94.90
21169;DHT22;10742;51.816;8.662;2023-12-04T18:18:13;5.40;94.90
21169;DHT22;10742;51.816;8.662;2023-12-04T18:21:34;5.40;94.90
21169;DHT22;10742;51.816;8.662;2023-12-04T18:24:55;5.40;94.90
21169;DHT22;10742;51.816;8.662;2023-12-04T18:28:17;5.40;94.90
21169;DHT22;10742;51.816;8.662;2023-12-04T18:31:38;5.30;94.90
21169;DHT22;10742;51.816;8.662;2023-12-04T18:35:00;5.30;94.90
21169;DHT22;10742;51.816;8.662;2023-12-04T18:38:31;5.20;94.90
21169;DHT22;10742;51.816;8.662;2023-12-04T18:41:53;5.20;95.20
21169;DHT22;10742;51.816;8.662;2023-12-04T18:45:15;5.20;95.10
21169;DHT22;10742;51.816;8.662;2023-12-04T18:48:36;5.10;95.10
21169;DHT22;10742;51.816;8.662;2023-12-04T18:51:59;5.10;95.20
21169;DHT22;10742;51.816;8.662;2023-12-04T18:55:20;5.10;95.30
21169;DHT22;10742;51.816;8.662;2023-12-04T18:58:41;5.00;95.30
21169;DHT22;10742;51.816;8.662;2023-12-04T19:02:03;5.00;95.40
21169;DHT22;10742;51.816;8.662;2023-12-04T19:05:25;5.00;95.40
21169;DHT22;10742;51.816;8.662;2023-12-04T19:08:51;5.00;95.50
21169;DHT22;10742;51.816;8.662;2023-12-04T19:12:12;5.00;95.60
21169;DHT22;10742;51.816;8.662;2023-12-04T19:15:34;5.00;95.60
21169;DHT22;10742;51.816;8.662;2023-12-04T19:18:56;4.90;95.70
21169;DHT22;10742;51.816;8.662;2023-12-04T19:22:17;4.90;95.70
21169;DHT22;10742;51.816;8.662;2023-12-04T19:25:38;4.90;95.80
21169;DHT22;10742;51.816;8.662;2023-12-04T19:29:04;4.90;95.80
21169;DHT22;10742;51.816;8.662;2023-12-04T19:32:25;4.90;95.80
21169;DHT22;10742;51.816;8.662;2023-12-04T19:35:46;4.90;96.00
21169;DHT22;10742;51.816;8.662;2023-12-04T19:39:07;4.90;96.00
21169;DHT22;10742;51.816;8.662;2023-12-04T19:42:29;4.90;96.00
21169;DHT22;10742;51.816;8.662;2023-12-04T19:45:50;5.00;96.10
21169;DHT22;10742;51.816;8.662;2023-12-04T19:49:11;5.00;96.10
21169;DHT22;10742;51.816;8.662;2023-12-04T19:52:33;5.10;96.20
21169;DHT22;10742;51.816;8.662;2023-12-04T19:55:54;5.00;96.20
21169;DHT22;10742;51.816;8.662;2023-12-04T19:59:15;5.10;96.30
21169;DHT22;10742;51.816;8.662;2023-12-04T20:02:36;5.10;96.40
21169;DHT22;10742;51.816;8.662;2023-12-04T20:05:57;5.10;96.30
21169;DHT22;10742;51.816;8.662;2023-12-04T20:09:18;5.10;96.30
21169;DHT22;10742;51.816;8.662;2023-12-04T20:12:40;5.10;96.40
21169;DHT22;10742;51.816;8.662;2023-12-04T20:16:01;5.10;96.40
21169;DHT22;10742;51.816;8.662;2023-12-04T20:19:22;5.20;96.50
21169;DHT22;10742;51.816;8.662;2023-12-04T20:22:43;5.20;96.50
21169;DHT22;10742;51.816;8.662;2023-12-04T20:26:04;5.20;96.50
21169;DHT22;10742;51.816;8.662;2023-12-04T20:29:25;5.30;96.50
21169;DHT22;10742;51.816;8.662;2023-12-04T20:32:46;5.30;96.50
21169;DHT22;10742;51.816;8.662;2023-12-04T20:36:12;5.30;96.50
21169;DHT22;10742;51.816;8.662;2023-12-04T20:39:34;5.30;96.60
21169;DHT22;10742;51.816;8.662;2023-12-04T20:42:56;5.40;96.50
21169;DHT22;10742;51.816;8.662;2023-12-04T20:46:18;5.40;96.50
21169;DHT22;10742;51.816;8.662;2023-12-04T20:49:39;5.40;96.50
21169;DHT22;10742;51.816;8.662;2023-12-04T20:53:00;5.40;96.50
21169;DHT22;10742;51.816;8.662;2023-12-04T20:56:21;5.50;96.60
21169;DHT22;10742;51.816;8.662;2023-12-04T20:59:43;5.50;96.60
21169;DHT22;10742;51.816;8.662;2023-12-04T21:03:04;5.50;96.60
21169;DHT22;10742;51.816;8.662;2023-12-04T21:06:27;5.60;96.60
21169;DHT22;10742;51.816;8.662;2023-12-04T21:09:48;5.70;96.60
21169;DHT22;10742;51.816;8.662;2023-12-04T21:13:09;5.60;96.60
21169;DHT22;10742;51.816;8.662;2023-12-04T21:16:30;5.60;96.60
21169;DHT22;10742;51.816;8.662;2023-12-04T21:19:52;5.60;96.70
21169;DHT22;10742;51.816;8.662;2023-12-04T21:23:13;5.70;96.70
21169;DHT22;10742;51.816;8.662;2023-12-04T21:26:34;5.70;96.70
21169;DHT22;10742;51.816;8.662;2023-12-04T21:29:55;5.70;96.70
21169;DHT22;10742;51.816;8.662;2023-12-04T21:33:18;5.70;96.70
21169;DHT22;10742;51.816;8.662;2023-12-04T21:36:39;5.70;96.80